Time;durP1;ratioP1;P1;durP2;ratioP2;P2;SDS_P1;SDS_P2;PMS_P1;PMS_P2;Temp;Humidity;BMP_temperature;BMP_pressure;BME280_temperature;BME280_humidity;BME280_pressure;Samples;Min_cycle;Max_cycle;Signal;HPM_P1;HPM_P2
2022/09/27 00:01:18;;;;;;;;;;;;;;;20.26;61.13;99176.09;5026798;28;4358;-60
2022/09/27 00:03:44;;;;;;;;;;;;;;;20.26;61.23;99165.34;5029108;28;4456;-60
2022/09/27 00:06:10;;;;;;;;;;;;;;;20.25;61.11;99160.28;5026461;28;4805;-60
2022/09/27 00:08:37;;;;;;;;;;;;;;;20.28;61.02;99161.78;5031891;28;4082;-60
2022/09/27 00:11:04;;;;;;;;;;;;;;;20.26;61.10;99158.84;5032956;28;4610;-60
2022/09/27 00:13:30;;;;;;;;;;;;;;;20.25;61.37;99148.78;5031110;28;4094;-60
2022/09/27 00:16:00;;;;;;;;;;;;;;;20.25;61.32;99155.25;5030090;28;4080;-60
2022/09/27 00:18:27;;;;;;;;;;;;;;;20.25;61.27;99157.41;5033569;28;4189;-60
2022/09/27 00:20:53;;;;;;;;;;;;;;;20.25;61.21;99148.78;5034513;28;4831;-60
2022/09/27 00:23:20;;;;;;;;;;;;;;;20.27;61.32;99152.44;5034325;28;4189;-59
2022/09/27 00:25:55;;;;;;;;;;;;;;;20.26;61.36;99153.84;5030252;28;4180;-60
2022/09/27 00:28:22;;;;;;;;;;;;;;;20.27;61.39;99148.81;5029345;28;4542;-60
2022/09/27 00:30:48;;;;;;;;;;;;;;;20.27;61.26;99143.06;5035337;28;4134;-60
2022/09/27 00:33:14;;;;;;;;;;;;;;;20.27;61.15;99138.06;5033157;28;4195;-61
2022/09/27 00:35:41;;;;;;;;;;;;;;;20.28;61.41;99133.03;5034961;28;4484;-61
2022/09/27 00:38:07;;;;;;;;;;;;;;;20.27;61.41;99138.06;5031188;28;4196;-61
2022/09/27 00:40:33;;;;;;;;;;;;;;;20.27;61.40;99137.31;5034465;28;4080;-61
2022/09/27 00:43:00;;;;;;;;;;;;;;;20.27;61.30;99131.56;5029524;28;4232;-61
2022/09/27 00:45:26;;;;;;;;;;;;;;;20.26;61.50;99130.13;5035321;28;4052;-61
2022/09/27 00:47:53;;;;;;;;;;;;;;;20.26;61.65;99124.38;5028894;28;4131;-61
2022/09/27 00:50:24;;;;;;;;;;;;;;;20.25;61.62;99122.94;5030930;28;4322;-61
2022/09/27 00:52:54;;;;;;;;;;;;;;;20.25;61.50;99115.03;5029925;28;4818;-61
2022/09/27 00:55:24;;;;;;;;;;;;;;;20.27;61.56;99114.31;5030153;28;4657;-61
2022/09/27 00:57:51;;;;;;;;;;;;;;;20.26;61.40;99107.84;5034329;28;4610;-61
2022/09/27 01:00:17;;;;;;;;;;;;;;;20.24;61.76;99109.97;5033211;28;6139;-61
2022/09/27 01:02:44;;;;;;;;;;;;;;;20.25;61.54;99097.78;5031973;28;4323;-61
2022/09/27 01:05:11;;;;;;;;;;;;;;;20.24;61.50;99104.94;5031856;28;4221;-61
2022/09/27 01:07:37;;;;;;;;;;;;;;;20.26;61.64;99104.25;5032441;28;4334;-61
2022/09/27 01:10:04;;;;;;;;;;;;;;;20.25;61.44;99094.91;5030140;28;4478;-61
2022/09/27 01:12:33;;;;;;;;;;;;;;;20.25;61.62;99088.44;5015353;28;4278;-61
2022/09/27 01:15:18;;;;;;;;;;;;;;;20.26;61.48;99084.13;5017584;28;4586;-61
2022/09/27 01:17:51;;;;;;;;;;;;;;;20.23;61.61;99085.53;5044403;28;5417;-61
2022/09/27 01:20:28;;;;;;;;;;;;;;;20.23;61.77;99079.78;5045592;28;4067;-61
2022/09/27 01:23:00;;;;;;;;;;;;;;;20.25;61.56;99085.56;5048051;28;4173;-61
2022/09/27 01:25:32;;;;;;;;;;;;;;;20.25;61.56;99083.41;5036650;28;4313;-61
2022/09/27 01:28:18;;;;;;;;;;;;;;;20.25;61.48;99082.69;5029628;28;4248;-61
2022/09/27 01:30:57;;;;;;;;;;;;;;;20.25;61.70;99074.06;5032152;28;4396;-61
2022/09/27 01:33:36;;;;;;;;;;;;;;;20.25;61.67;99074.06;5014757;28;4220;-60
2022/09/27 01:36:20;;;;;;;;;;;;;;;20.24;61.72;99070.44;5034579;28;3995;-61
2022/09/27 01:38:55;;;;;;;;;;;;;;;20.24;61.52;99063.97;5033497;28;4582;-61
2022/09/27 01:41:25;;;;;;;;;;;;;;;20.23;61.80;99059.66;5029181;28;4314;-61
2022/09/27 01:44:21;;;;;;;;;;;;;;;20.22;61.77;99055.31;5019458;28;4459;-61
2022/09/27 01:46:53;;;;;;;;;;;;;;;20.23;61.52;99048.16;5018904;28;4242;-61
2022/09/27 01:49:53;;;;;;;;;;;;;;;20.24;61.59;99047.47;5032755;28;4182;-61
2022/09/27 01:52:21;;;;;;;;;;;;;;;20.24;61.75;99047.47;5025483;28;4422;-61
2022/09/27 01:54:49;;;;;;;;;;;;;;;20.23;61.76;99033.78;5019096;28;4528;-61
2022/09/27 01:57:35;;;;;;;;;;;;;;;20.22;61.82;99033.06;5033423;28;4460;-60
2022/09/27 02:00:07;;;;;;;;;;;;;;;20.23;61.61;99030.94;5032613;28;4184;-61
2022/09/27 02:02:43;;;;;;;;;;;;;;;20.25;61.61;99030.97;5031699;28;4152;-60
2022/09/27 02:05:41;;;;;;;;;;;;;;;20.25;61.46;99022.34;5030607;28;4355;-61
2022/09/27 02:08:41;;;;;;;;;;;;;;;20.24;61.53;99012.97;5030610;28;4195;-60
2022/09/27 02:11:17;;;;;;;;;;;;;;;20.26;61.71;99023.78;5061829;28;4152;-61
2022/09/27 02:13:53;;;;;;;;;;;;;;;20.24;61.67;99009.38;5037636;28;4138;-61
2022/09/27 02:16:49;;;;;;;;;;;;;;;20.24;61.59;99009.38;5048383;28;4098;-61
2022/09/27 02:19:38;;;;;;;;;;;;;;;20.25;61.61;99011.56;5046768;28;4139;-61
2022/09/27 02:22:23;;;;;;;;;;;;;;;20.25;61.84;99000.06;5050706;28;4383;-61
2022/09/27 02:24:52;;;;;;;;;;;;;;;20.22;61.57;99003.59;5051252;28;4164;-61
2022/09/27 02:27:39;;;;;;;;;;;;;;;20.24;61.63;99006.50;5069607;28;4132;-61
2022/09/27 02:30:10;;;;;;;;;;;;;;;20.25;61.48;98990.72;5050700;28;4410;-62
2022/09/27 02:32:38;;;;;;;;;;;;;;;20.24;61.75;98998.59;5037446;28;4173;-61
2022/09/27 02:35:12;;;;;;;;;;;;;;;20.23;61.72;98982.06;5054762;28;4358;-61
2022/09/27 02:37:39;;;;;;;;;;;;;;;20.23;61.63;98993.56;5018408;28;4175;-61
2022/09/27 02:40:06;;;;;;;;;;;;;;;20.25;61.54;98979.22;5026039;28;4256;-61
2022/09/27 02:42:32;;;;;;;;;;;;;;;20.24;61.69;98974.88;5040628;28;4200;-61
2022/09/27 02:44:59;;;;;;;;;;;;;;;20.24;61.63;98978.47;5012256;28;4177;-61
2022/09/27 02:47:28;;;;;;;;;;;;;;;20.27;61.56;98970.63;5031776;28;4606;-61
2022/09/27 02:50:06;;;;;;;;;;;;;;;20.28;61.42;98978.56;5030423;28;4519;-60
2022/09/27 02:52:59;;;;;;;;;;;;;;;20.28;61.60;98977.84;5031198;28;4181;-61
2022/09/27 02:55:40;;;;;;;;;;;;;;;20.30;61.44;98972.13;5029362;28;4114;-61
2022/09/27 02:58:37;;;;;;;;;;;;;;;20.33;61.51;98970.72;5023935;28;4670;-61
2022/09/27 03:01:17;;;;;;;;;;;;;;;20.36;61.49;98977.97;5015423;28;4179;-61
2022/09/27 03:04:03;;;;;;;;;;;;;;;20.36;61.57;98968.63;5025219;28;4233;-60
2022/09/27 03:06:29;;;;;;;;;;;;;;;20.35;61.53;98965.03;5029328;28;4047;-60
2022/09/27 03:08:56;;;;;;;;;;;;;;;20.39;61.36;98970.13;5030878;28;4255;-61
2022/09/27 03:11:22;;;;;;;;;;;;;;;20.40;61.70;98966.53;5016940;28;4165;-61
2022/09/27 03:13:48;;;;;;;;;;;;;;;20.39;61.39;98965.09;5015427;28;4211;-61
2022/09/27 03:16:36;;;;;;;;;;;;;;;20.38;61.65;98955.00;5019163;28;5656;-61
2022/09/27 03:19:12;;;;;;;;;;;;;;;20.40;61.55;98960.78;5030184;28;4201;-61
2022/09/27 03:22:04;;;;;;;;;;;;;;;20.39;61.44;98961.50;5032739;28;5018;-60
2022/09/27 03:24:31;;;;;;;;;;;;;;;20.40;61.46;98949.28;5019459;28;4080;-61
2022/09/27 03:26:57;;;;;;;;;;;;;;;20.39;61.48;98944.25;5026798;28;4049;-61
2022/09/27 03:29:24;;;;;;;;;;;;;;;20.39;61.43;98950.72;5032154;28;4374;-61
2022/09/27 03:31:58;;;;;;;;;;;;;;;20.36;61.55;98954.97;5016249;28;4421;-61
2022/09/27 03:34:40;;;;;;;;;;;;;;;20.38;61.63;98955.00;5030617;28;4387;-60
2022/09/27 03:37:07;;;;;;;;;;;;;;;20.40;61.56;98949.28;5030863;28;4205;-60
2022/09/27 03:39:33;;;;;;;;;;;;;;;20.43;61.41;98942.16;5030607;28;6265;-60
2022/09/27 03:41:59;;;;;;;;;;;;;;;20.44;61.38;98949.34;5027416;28;4175;-60
2022/09/27 03:44:26;;;;;;;;;;;;;;;20.46;61.67;98937.88;5041145;28;4292;-61
2022/09/27 03:46:52;;;;;;;;;;;;;;;20.45;61.66;98942.16;5021919;28;4134;-60
2022/09/27 03:49:19;;;;;;;;;;;;;;;20.46;61.61;98935.00;5032413;28;4324;-61
2022/09/27 03:51:45;;;;;;;;;;;;;;;20.48;61.57;98932.16;5032960;28;4256;-61
2022/09/27 03:54:11;;;;;;;;;;;;;;;20.49;61.46;98933.63;5029225;28;4079;-61
2022/09/27 03:56:38;;;;;;;;;;;;;;;20.47;61.23;98935.72;5032862;28;4643;-61
2022/09/27 03:59:04;;;;;;;;;;;;;;;20.49;61.31;98925.00;5033018;28;4228;-61
2022/09/27 04:01:50;;;;;;;;;;;;;;;20.49;61.32;98927.88;5035062;28;4240;-60
2022/09/27 04:04:37;;;;;;;;;;;;;;;20.46;61.35;98919.91;5036374;28;4323;-60
2022/09/27 04:07:03;;;;;;;;;;;;;;;20.46;61.74;98914.88;5034652;28;4280;-61
2022/09/27 04:09:30;;;;;;;;;;;;;;;20.45;61.27;98916.28;5032872;28;4191;-61
2022/09/27 04:11:59;;;;;;;;;;;;;;;20.43;61.58;98913.41;5015690;28;6493;-61
2022/09/27 04:14:25;;;;;;;;;;;;;;;20.44;61.48;98911.97;5035991;28;4304;-61
2022/09/27 04:17:24;;;;;;;;;;;;;;;20.43;61.64;98910.53;5029582;28;4669;-60
2022/09/27 04:20:09;;;;;;;;;;;;;;;20.45;61.48;98904.78;5026709;28;4409;-61
2022/09/27 04:22:39;;;;;;;;;;;;;;;20.46;61.42;98899.78;5026949;28;4197;-61
2022/09/27 04:25:05;;;;;;;;;;;;;;;20.45;61.51;98904.06;5035772;28;4153;-61
2022/09/27 04:27:36;;;;;;;;;;;;;;;20.44;61.64;98909.09;5030420;28;4114;-61
2022/09/27 04:30:03;;;;;;;;;;;;;;;20.44;61.31;98911.97;5035774;28;3986;-61
2022/09/27 04:32:51;;;;;;;;;;;;;;;20.42;61.35;98909.06;5025359;28;4191;-60
2022/09/27 04:38:22;;;;;;;;;;;;;;;20.59;61.48;98909.34;5025917;28;4274;-66
2022/09/27 04:40:49;;;;;;;;;;;;;;;20.61;62.75;98910.09;5014959;28;5652;-64
2022/09/27 04:43:16;;;;;;;;;;;;;;;20.64;62.69;98908.00;5015795;28;4577;-65
2022/09/27 04:45:42;;;;;;;;;;;;;;;20.60;62.28;98916.56;5032935;28;4303;-63
2022/09/27 04:48:09;;;;;;;;;;;;;;;20.59;63.49;98912.22;5029158;28;5500;-66
2022/09/27 04:50:38;;;;;;;;;;;;;;;20.57;62.39;98912.94;5021686;28;4261;-64
2022/09/27 04:53:05;;;;;;;;;;;;;;;20.61;62.92;98915.13;5034926;28;4131;-63
2022/09/27 04:55:31;;;;;;;;;;;;;;;20.57;62.90;98920.81;5034983;28;4516;-63
2022/09/27 04:58:00;;;;;;;;;;;;;;;19.27;60.43;98920.69;5019861;28;4775;-61
2022/09/27 05:00:28;;;;;;;;;;;;;;;18.73;61.02;98915.97;5014952;28;4379;-60
2022/09/27 05:03:02;;;;;;;;;;;;;;;19.07;60.29;98914.56;5036369;28;4169;-59
2022/09/27 05:05:40;;;;;;;;;;;;;;;18.93;59.31;98921.44;5031010;28;4171;-59
2022/09/27 05:08:06;;;;;;;;;;;;;;;18.74;59.19;98916.69;5032438;28;4274;-59
2022/09/27 05:10:52;;;;;;;;;;;;;;;18.45;59.57;98912.47;5028776;28;4362;-59
2022/09/27 05:13:19;;;;;;;;;;;;;;;18.27;59.29;98922.06;5016969;28;5261;-59
2022/09/27 05:15:45;;;;;;;;;;;;;;;18.11;59.54;98915.97;5006622;28;4194;-60
2022/09/27 05:18:37;;;;;;;;;;;;;;;18.15;59.73;98921.78;5012290;28;4205;-60
2022/09/27 05:21:30;;;;;;;;;;;;;;;19.06;57.99;98919.56;5011072;28;5468;-63
2022/09/27 05:23:57;;;;;;;;;;;;;;;19.49;57.09;98917.53;5029618;28;4185;-63
2022/09/27 05:26:23;;;;;;;;;;;;;;;19.66;56.58;98910.66;5033208;28;4276;-63
2022/09/27 05:28:50;;;;;;;;;;;;;;;19.72;56.66;98906.47;5010327;28;4299;-64
2022/09/27 05:31:16;;;;;;;;;;;;;;;19.83;56.83;98911.00;5027006;28;4145;-71
2022/09/27 05:33:43;;;;;;;;;;;;;;;19.93;57.03;98916.91;5030599;28;4089;-71
2022/09/27 05:36:30;;;;;;;;;;;;;;;19.98;57.40;98912.69;5029804;28;4973;-70
2022/09/27 05:38:56;;;;;;;;;;;;;;;20.02;57.58;98907.03;5026641;28;5014;-69
2022/09/27 05:41:24;;;;;;;;;;;;;;;20.04;57.74;98904.19;5032081;28;4541;-68
2022/09/27 05:43:51;;;;;;;;;;;;;;;20.08;57.79;98909.97;5024437;28;5460;-69
2022/09/27 05:46:17;;;;;;;;;;;;;;;20.08;58.14;98909.25;5029867;28;4159;-68
2022/09/27 05:48:46;;;;;;;;;;;;;;;20.09;58.12;98905.69;5033601;28;5194;-70
2022/09/27 05:51:13;;;;;;;;;;;;;;;20.12;58.26;98906.47;5027802;28;4425;-70
2022/09/27 05:53:39;;;;;;;;;;;;;;;20.22;58.07;98903.00;5023331;28;4287;-59
2022/09/27 05:56:12;;;;;;;;;;;;;;;20.21;59.61;98904.44;5032600;28;4236;-66
2022/09/27 05:59:08;;;;;;;;;;;;;;;20.25;58.50;98904.50;5024077;28;4569;-67
2022/09/27 06:01:54;;;;;;;;;;;;;;;20.21;58.82;98902.28;5027031;28;4159;-67
2022/09/27 06:04:39;;;;;;;;;;;;;;;20.22;59.22;98900.13;5032705;28;5191;-69
2022/09/27 06:07:29;;;;;;;;;;;;;;;20.21;58.98;98899.41;5029419;28;4581;-69
2022/09/27 06:09:56;;;;;;;;;;;;;;;20.23;59.09;98899.44;5029639;28;5172;-69
2022/09/27 06:12:22;;;;;;;;;;;;;;;20.24;59.00;98900.16;5022635;28;4220;-68
2022/09/27 06:14:48;;;;;;;;;;;;;;;20.26;59.19;98897.34;5028291;28;4231;-68
2022/09/27 06:17:27;;;;;;;;;;;;;;;20.25;59.20;98901.63;5021907;28;4349;-68
2022/09/27 06:19:54;;;;;;;;;;;;;;;20.26;59.18;98900.94;5018314;28;4212;-68
2022/09/27 06:22:22;;;;;;;;;;;;;;;20.29;59.40;98898.81;5024033;28;4297;-68
2022/09/27 06:24:57;;;;;;;;;;;;;;;20.31;59.31;98901.72;5028350;28;4147;-69
2022/09/27 06:27:26;;;;;;;;;;;;;;;20.31;59.64;98898.84;5027879;28;4319;-69
2022/09/27 06:29:57;;;;;;;;;;;;;;;20.32;59.86;98900.31;5012565;28;5376;-67
2022/09/27 06:32:36;;;;;;;;;;;;;;;20.33;59.60;98903.91;5024009;28;4305;-68
2022/09/27 06:35:29;;;;;;;;;;;;;;;20.34;59.43;98905.34;5027659;28;4092;-69
2022/09/27 06:37:56;;;;;;;;;;;;;;;20.36;59.96;98908.97;5031809;28;4537;-69
2022/09/27 06:40:25;;;;;;;;;;;;;;;20.36;60.06;98906.09;5024158;28;5111;-69
2022/09/27 06:43:12;;;;;;;;;;;;;;;20.38;60.20;98911.16;5024876;28;4383;-69
2022/09/27 06:46:04;;;;;;;;;;;;;;;20.37;60.66;98904.69;5031508;28;4209;-69
2022/09/27 06:48:51;;;;;;;;;;;;;;;20.37;60.40;98898.94;5016494;28;5225;-69
2022/09/27 06:51:19;;;;;;;;;;;;;;;20.35;60.83;98901.78;5027142;28;4256;-69
2022/09/27 06:53:47;;;;;;;;;;;;;;;20.38;60.89;98906.13;5012115;28;5239;-69
2022/09/27 06:56:13;;;;;;;;;;;;;;;20.40;60.85;98902.56;5024757;28;5683;-68
2022/09/27 07:01:40;;;;;;;;;;;;;;;20.42;60.85;98906.19;5021187;28;4269;-68
2022/09/27 07:04:25;;;;;;;;;;;;;;;20.44;60.41;98914.13;5031763;28;4188;-69
2022/09/27 07:07:09;;;;;;;;;;;;;;;20.45;60.57;98907.66;5019476;28;5740;-68
2022/09/27 07:09:39;;;;;;;;;;;;;;;20.45;60.54;98913.41;5031445;28;4173;-73
2022/09/27 07:12:06;;;;;;;;;;;;;;;20.46;60.58;98906.25;5033768;28;4587;-72
2022/09/27 07:14:33;;;;;;;;;;;;;;;20.46;60.61;98914.88;5031084;28;4148;-72
2022/09/27 07:17:00;;;;;;;;;;;;;;;20.48;60.83;98914.91;5033556;28;4102;-73
2022/09/27 07:19:32;;;;;;;;;;;;;;;20.48;61.13;98912.03;5028659;28;4110;-73
2022/09/27 07:21:58;;;;;;;;;;;;;;;20.48;61.22;98906.31;5025086;28;4237;-73
2022/09/27 07:24:25;;;;;;;;;;;;;;;20.48;60.97;98911.31;5030172;28;4166;-73
2022/09/27 07:26:51;;;;;;;;;;;;;;;20.48;61.13;98909.19;5028208;28;4215;-73
2022/09/27 07:29:19;;;;;;;;;;;;;;;20.49;61.24;98916.38;5031466;28;5539;-74
2022/09/27 07:31:47;;;;;;;;;;;;;;;20.49;61.61;98913.50;5024197;28;5282;-72
2022/09/27 07:34:17;;;;;;;;;;;;;;;20.49;61.91;98909.88;5026006;28;5355;-72
2022/09/27 07:36:43;;;;;;;;;;;;;;;20.49;61.64;98922.09;5026971;28;4260;-72
2022/09/27 07:39:10;;;;;;;;;;;;;;;20.49;61.64;98916.38;5014905;28;4232;-72
2022/09/27 07:41:39;;;;;;;;;;;;;;;20.49;61.87;98915.66;5022018;28;4264;-73
2022/09/27 07:44:06;;;;;;;;;;;;;;;20.49;61.69;98916.38;5030737;28;4587;-73
2022/09/27 07:46:41;;;;;;;;;;;;;;;20.49;61.77;98915.66;5029055;28;4197;-73
2022/09/27 07:49:20;;;;;;;;;;;;;;;20.49;61.46;98910.63;5030398;28;4250;-73
2022/09/27 07:51:59;;;;;;;;;;;;;;;20.49;61.54;98916.38;5013660;28;4596;-72
2022/09/27 07:54:40;;;;;;;;;;;;;;;20.49;61.31;98910.63;5021170;28;4260;-71
2022/09/27 07:57:25;;;;;;;;;;;;;;;20.50;61.30;98912.09;5031650;28;4277;-71
2022/09/27 07:59:53;;;;;;;;;;;;;;;20.50;61.32;98912.09;5034091;28;5427;-71
2022/09/27 08:02:21;;;;;;;;;;;;;;;20.50;61.56;98917.81;5018903;28;5355;-71
2022/09/27 08:04:49;;;;;;;;;;;;;;;20.50;61.52;98920.69;5015008;28;4279;-72
2022/09/27 08:07:16;;;;;;;;;;;;;;;20.50;61.55;98923.59;5008997;28;4191;-71
2022/09/27 08:09:46;;;;;;;;;;;;;;;20.51;61.35;98918.56;5013064;28;4270;-71
2022/09/27 08:12:12;;;;;;;;;;;;;;;20.51;61.36;98924.31;5027842;28;4252;-71
2022/09/27 08:14:39;;;;;;;;;;;;;;;20.51;61.23;98925.03;5026842;28;5323;-72
2022/09/27 08:17:13;;;;;;;;;;;;;;;20.53;61.12;98917.88;5026247;28;4324;-71
2022/09/27 08:19:59;;;;;;;;;;;;;;;20.53;61.18;98923.63;5029905;28;4436;-71
2022/09/27 08:22:41;;;;;;;;;;;;;;;20.53;61.13;98932.25;5029002;28;5749;-70
2022/09/27 08:25:23;;;;;;;;;;;;;;;20.51;61.18;98927.91;5011080;28;4172;-68
2022/09/27 08:28:08;;;;;;;;;;;;;;;20.51;61.12;98930.78;5023306;28;4251;-67
2022/09/27 08:30:41;;;;;;;;;;;;;;;20.51;61.00;98930.78;5031723;28;4249;-69
2022/09/27 08:33:07;;;;;;;;;;;;;;;20.51;61.12;98925.03;5031925;28;5294;-70
2022/09/27 08:35:34;;;;;;;;;;;;;;;20.51;61.10;98925.03;5040961;28;4232;-70
2022/09/27 08:38:01;;;;;;;;;;;;;;;20.52;60.63;98931.50;5049457;28;5439;-70
2022/09/27 08:40:45;;;;;;;;;;;;;;;20.51;61.57;98927.91;5044986;28;4227;-68
2022/09/27 08:43:18;;;;;;;;;;;;;;;20.53;61.17;98926.50;5031299;28;5131;-68
2022/09/27 08:45:50;;;;;;;;;;;;;;;20.49;60.89;98927.88;5045379;28;5354;-68
2022/09/27 08:48:18;;;;;;;;;;;;;;;20.22;60.08;98940.38;5018379;28;4226;-58
2022/09/27 08:50:44;;;;;;;;;;;;;;;19.96;59.79;98927.00;5022166;28;4260;-57
2022/09/27 08:53:12;;;;;;;;;;;;;;;19.23;60.50;98938.56;5020582;28;4315;-57
2022/09/27 08:55:43;;;;;;;;;;;;;;;19.45;60.93;98940.44;5024306;28;4659;-57
2022/09/27 08:58:15;;;;;;;;;;;;;;;19.50;60.17;98941.22;5007395;28;5203;-57
2022/09/27 09:00:42;;;;;;;;;;;;;;;19.16;60.36;98936.97;5010887;28;4232;-67
2022/09/27 09:03:15;;;;;;;;;;;;;;;19.23;59.54;98937.81;5009560;28;4311;-61
2022/09/27 09:05:42;;;;;;;;;;;;;;;18.92;59.86;98942.19;5008756;28;4218;-60
2022/09/27 09:08:24;;;;;;;;;;;;;;;19.07;59.24;98943.97;5024726;28;5491;-60
2022/09/27 09:13:50;;;;;;;;;;;;;;;18.46;60.89;98931.09;5012716;28;4168;-59
2022/09/27 09:16:19;;;;;;;;;;;;;;;18.46;60.98;98931.81;5028851;28;4137;-59
2022/09/27 09:18:56;;;;;;;;;;;;;;;18.57;60.70;98932.78;5005469;28;4350;-62
2022/09/27 09:21:50;;;;;;;;;;;;;;;18.89;60.01;98929.22;5015700;28;4195;-72
2022/09/27 09:24:20;;;;;;;;;;;;;;;19.49;60.07;98931.16;4995748;28;4086;-71
2022/09/27 09:26:56;;;;;;;;;;;;;;;19.70;59.57;98926.53;5000560;28;4190;-64
2022/09/27 09:29:27;;;;;;;;;;;;;;;19.94;58.25;98921.22;5002079;28;5403;-63
2022/09/27 09:31:57;;;;;;;;;;;;;;;19.91;57.58;98925.50;5021874;28;4902;-64
2022/09/27 09:34:27;;;;;;;;;;;;;;;19.80;57.58;98927.47;5016373;28;5265;-65
2022/09/27 09:36:59;;;;;;;;;;;;;;;19.84;57.62;98923.94;5008951;28;5305;-63
2022/09/27 09:39:26;;;;;;;;;;;;;;;19.48;58.13;98939.03;5023431;28;4504;-72
2022/09/27 09:42:00;;;;;;;;;;;;;;;19.77;57.66;98928.09;5023390;28;4695;-73
2022/09/27 09:44:27;;;;;;;;;;;;;;;20.00;57.26;98929.97;5011995;28;4302;-75
2022/09/27 09:47:00;;;;;;;;;;;;;;;20.08;57.13;98927.22;5019726;28;4235;-72
2022/09/27 09:49:27;;;;;;;;;;;;;;;20.15;57.40;98924.44;5028338;28;4119;-73
2022/09/27 09:52:10;;;;;;;;;;;;;;;20.18;57.43;98925.94;5017554;28;4038;-75
2022/09/27 09:54:38;;;;;;;;;;;;;;;20.23;57.54;98927.47;5019356;28;5814;-71
2022/09/27 09:57:14;;;;;;;;;;;;;;;20.23;57.33;98924.59;5013272;28;4159;-74
2022/09/27 09:59:46;;;;;;;;;;;;;;;20.27;57.28;98922.50;5031090;28;4673;-77
2022/09/27 10:02:19;;;;;;;;;;;;;;;20.29;57.10;98919.66;5008484;28;5323;-71
2022/09/27 10:04:45;;;;;;;;;;;;;;;20.33;57.40;98921.88;5008077;28;4101;-71
2022/09/27 10:07:12;;;;;;;;;;;;;;;20.35;57.29;98919.03;5009142;28;4139;-73
2022/09/27 10:09:38;;;;;;;;;;;;;;;20.37;57.40;98919.06;5022211;28;4230;-69
2022/09/27 10:12:43;;;;;;;;;;;;;;;20.38;57.61;98906.13;5024495;28;4159;-70
2022/09/27 10:15:12;;;;;;;;;;;;;;;20.39;57.60;98910.47;5019758;28;4250;-70
2022/09/27 10:17:40;;;;;;;;;;;;;;;20.41;57.54;98916.25;5013029;28;4332;-69
2022/09/27 10:20:15;;;;;;;;;;;;;;;20.41;57.84;98916.25;5001896;28;5354;-71
2022/09/27 10:22:44;;;;;;;;;;;;;;;20.45;58.46;98909.81;5001623;28;4178;-71
2022/09/27 10:25:23;;;;;;;;;;;;;;;20.52;58.03;98914.25;5008095;28;4294;-75
2022/09/27 10:27:58;;;;;;;;;;;;;;;20.48;58.03;98906.31;4998272;28;4245;-71
2022/09/27 10:30:33;;;;;;;;;;;;;;;20.84;58.70;98902.50;5001268;28;4201;-79
2022/09/27 10:33:16;;;;;;;;;;;;;;;21.28;57.63;98907.38;5012276;28;4851;-76
2022/09/27 10:35:44;;;;;;;;;;;;;;;21.46;57.02;98911.88;5007799;28;6192;-81
2022/09/27 10:38:31;;;;;;;;;;;;;;;21.51;56.59;98913.41;5026513;28;4247;-72
2022/09/27 10:41:15;;;;;;;;;;;;;;;21.52;56.36;98911.97;5040982;28;4299;-81
2022/09/27 10:43:41;;;;;;;;;;;;;;;21.49;56.23;98914.09;5024289;28;5554;-70
2022/09/27 10:46:25;;;;;;;;;;;;;;;21.51;56.45;98904.75;5011401;28;4365;-69
2022/09/27 10:49:06;;;;;;;;;;;;;;;21.70;56.17;98903.50;5026075;28;4232;-72
2022/09/27 10:51:33;;;;;;;;;;;;;;;21.64;56.59;98906.31;5015623;28;4220;-75
2022/09/27 10:54:00;;;;;;;;;;;;;;;21.56;56.66;98906.25;5012314;28;4304;-72
2022/09/27 10:56:30;;;;;;;;;;;;;;;21.60;56.82;98894.03;5010254;28;4333;-73
2022/09/27 10:58:58;;;;;;;;;;;;;;;21.59;56.93;98907.72;5022761;28;5407;-72
2022/09/27 11:01:26;;;;;;;;;;;;;;;21.62;57.20;98906.31;5030249;28;4256;-78
2022/09/27 11:04:20;;;;;;;;;;;;;;;21.70;56.83;98903.50;5020419;28;4258;-77
2022/09/27 11:06:47;;;;;;;;;;;;;;;21.78;56.43;98905.00;5012941;28;4391;-68
2022/09/27 11:09:23;;;;;;;;;;;;;;;21.78;56.66;98908.63;4992375;28;4250;-69
2022/09/27 11:12:04;;;;;;;;;;;;;;;21.75;57.00;98904.28;5014908;28;4419;-79
2022/09/27 11:14:31;;;;;;;;;;;;;;;21.79;56.82;98909.38;5025833;28;4134;-77
2022/09/27 11:17:08;;;;;;;;;;;;;;;21.59;56.74;98915.63;5028583;28;4253;-69
2022/09/27 11:19:42;;;;;;;;;;;;;;;21.82;56.30;98928.09;5019110;28;4233;-65
2022/09/27 11:22:27;;;;;;;;;;;;;;;21.86;56.61;98948.31;5024328;28;4196;-67
2022/09/27 11:25:11;;;;;;;;;;;;;;;21.82;56.85;98954.03;5023295;28;4141;-69
2022/09/27 11:27:50;;;;;;;;;;;;;;;21.70;57.14;98958.25;5027854;28;4788;-69
2022/09/27 11:30:21;;;;;;;;;;;;;;;21.69;57.42;98953.16;5025013;28;4847;-68
2022/09/27 11:33:13;;;;;;;;;;;;;;;21.67;57.60;98956.03;4995582;28;4255;-69
2022/09/27 11:35:49;;;;;;;;;;;;;;;21.94;56.60;98971.44;4999199;28;6114;-69
2022/09/27 11:38:22;;;;;;;;;;;;;;;22.05;56.33;98963.63;5008702;28;4276;-70
2022/09/27 11:41:39;;;;;;;;;;;;;;;22.08;56.18;98962.19;5032576;28;4162;-69
2022/09/27 11:44:11;;;;;;;;;;;;;;;22.08;55.81;98962.94;4981494;28;4186;-69
2022/09/27 11:46:38;;;;;;;;;;;;;;;22.09;56.17;98958.63;5041894;28;4701;-72
2022/09/27 11:49:09;;;;;;;;;;;;;;;22.14;55.92;98968.75;5013318;28;4375;-70
2022/09/27 11:51:55;;;;;;;;;;;;;;;22.18;55.68;98960.13;5015926;28;4155;-71
2022/09/27 11:54:25;;;;;;;;;;;;;;;22.13;56.36;98958.66;5028199;28;5298;-69
2022/09/27 11:56:59;;;;;;;;;;;;;;;22.15;56.05;98958.69;5023081;28;4551;-73
2022/09/27 11:59:48;;;;;;;;;;;;;;;22.14;56.07;98968.03;5026484;28;4335;-70
2022/09/27 12:02:23;;;;;;;;;;;;;;;22.35;56.06;98963.91;5009521;28;4195;-65
2022/09/27 12:04:55;;;;;;;;;;;;;;;22.53;55.23;98969.09;5026188;28;4286;-66
2022/09/27 12:07:36;;;;;;;;;;;;;;;22.54;54.88;98964.78;5018083;28;4471;-66
2022/09/27 12:10:04;;;;;;;;;;;;;;;22.50;55.14;98970.50;5009217;28;4190;-66
2022/09/27 12:12:33;;;;;;;;;;;;;;;22.50;55.51;98976.28;5014061;28;4233;-66
2022/09/27 12:15:00;;;;;;;;;;;;;;;22.48;55.18;98979.16;5023962;28;4273;-65
2022/09/27 12:17:34;;;;;;;;;;;;;;;22.46;55.41;98964.00;5024525;28;6200;-66
2022/09/27 12:20:02;;;;;;;;;;;;;;;22.52;55.39;98972.69;5043735;28;4309;-64
2022/09/27 12:22:49;;;;;;;;;;;;;;;22.84;54.92;98972.19;5033108;28;5551;-65
2022/09/27 12:25:37;;;;;;;;;;;;;;;22.93;54.50;98973.69;5027438;28;4465;-66
2022/09/27 12:28:32;;;;;;;;;;;;;;;22.73;55.10;98970.69;5042923;28;4208;-64
2022/09/27 12:31:02;;;;;;;;;;;;;;;22.62;55.27;98974.94;5060521;28;4081;-65
2022/09/27 12:33:50;;;;;;;;;;;;;;;22.43;55.44;98971.91;5039722;28;4256;-71
2022/09/27 12:36:18;;;;;;;;;;;;;;;22.26;56.56;98976.09;5053912;28;4195;-73
2022/09/27 12:39:01;;;;;;;;;;;;;;;22.28;56.42;98973.94;5048372;28;4148;-72
2022/09/27 12:41:30;;;;;;;;;;;;;;;22.11;55.96;98978.81;5047046;28;4068;-70
2022/09/27 12:44:14;;;;;;;;;;;;;;;22.23;55.77;98971.75;5032409;28;4230;-71
2022/09/27 12:47:07;;;;;;;;;;;;;;;22.27;55.96;98978.25;5042442;28;4216;-67
2022/09/27 12:49:56;;;;;;;;;;;;;;;22.16;56.34;98973.81;5045100;28;4817;-68
2022/09/27 12:52:27;;;;;;;;;;;;;;;22.16;56.01;98974.53;5027876;28;4083;-67
2022/09/27 12:55:10;;;;;;;;;;;;;;;21.70;57.20;98977.69;5016530;28;4086;-65
2022/09/27 12:57:40;;;;;;;;;;;;;;;21.88;57.53;98977.88;5028714;28;4404;-71
2022/09/27 13:00:09;;;;;;;;;;;;;;;21.93;56.91;98984.41;5045126;28;4503;-69
2022/09/27 13:02:54;;;;;;;;;;;;;;;22.09;56.33;98978.06;5014400;28;4165;-68
2022/09/27 13:05:48;;;;;;;;;;;;;;;22.18;56.20;98976.72;5037270;28;4311;-68
2022/09/27 13:08:33;;;;;;;;;;;;;;;22.17;56.17;98978.88;5027307;28;4280;-68
2022/09/27 13:11:06;;;;;;;;;;;;;;;22.13;56.71;98978.84;5033418;28;4162;-70
2022/09/27 13:13:33;;;;;;;;;;;;;;;22.09;56.36;98984.56;5048621;28;5204;-68
2022/09/27 13:16:03;;;;;;;;;;;;;;;21.97;56.80;98987.34;5036061;28;5418;-68
2022/09/27 13:18:34;;;;;;;;;;;;;;;22.09;56.64;98993.22;5045197;28;4296;-68
2022/09/27 13:21:03;;;;;;;;;;;;;;;22.12;56.49;98986.03;5016292;28;4721;-67
2022/09/27 13:23:40;;;;;;;;;;;;;;;22.00;56.79;98993.84;5020691;28;4212;-73
2022/09/27 13:26:41;;;;;;;;;;;;;;;21.67;57.34;98996.34;5026319;28;4902;-72
2022/09/27 13:29:21;;;;;;;;;;;;;;;21.83;57.28;98993.69;5022933;28;4210;-74
2022/09/27 13:31:56;;;;;;;;;;;;;;;21.89;57.24;98987.97;5015304;28;4156;-68
2022/09/27 13:34:50;;;;;;;;;;;;;;;21.87;57.40;98999.47;5008003;28;5730;-64
2022/09/27 13:37:22;;;;;;;;;;;;;;;21.79;57.40;99001.53;4999303;28;4811;-64
2022/09/27 13:39:49;;;;;;;;;;;;;;;21.78;57.46;99000.81;5006127;28;4209;-66
2022/09/27 13:42:34;;;;;;;;;;;;;;;21.75;57.52;99002.94;4995881;28;4186;-67